createdAt,value
2018-05-14T00:00:38.031Z,99.90
2018-05-14T00:03:05.500Z,99.90
2018-05-14T00:05:32.979Z,99.90
2018-05-14T00:08:00.456Z,99.90
2018-05-14T00:10:28.698Z,99.90
2018-05-14T00:12:56.240Z,99.90
2018-05-14T00:15:23.707Z,99.90
2018-05-14T00:17:51.184Z,99.90
2018-05-14T00:20:18.650Z,99.90
2018-05-14T00:22:46.133Z,99.90
2018-05-14T00:25:13.593Z,99.90
2018-05-14T00:27:41.062Z,99.90
2018-05-14T00:30:08.522Z,99.90
2018-05-14T00:32:35.996Z,99.90
2018-05-14T00:35:03.474Z,99.90
2018-05-14T00:37:30.930Z,99.90
2018-05-14T00:39:58.721Z,99.90
2018-05-14T00:42:26.183Z,99.90
2018-05-14T00:44:53.670Z,99.90
2018-05-14T00:47:21.136Z,99.90
2018-05-14T00:49:48.604Z,99.90
2018-05-14T00:52:19.938Z,99.90
2018-05-14T00:54:59.257Z,99.90
2018-05-14T00:57:26.713Z,99.90
2018-05-14T00:59:54.189Z,99.90
2018-05-14T01:02:21.658Z,99.90
2018-05-14T01:04:49.112Z,99.90
2018-05-14T01:07:16.594Z,99.90
2018-05-14T01:09:44.076Z,99.90
2018-05-14T01:12:11.533Z,99.90
2018-05-14T01:14:39.014Z,99.90
2018-05-14T01:17:06.477Z,99.90
2018-05-14T01:19:33.932Z,99.90
2018-05-14T01:22:01.400Z,99.90
2018-05-14T01:24:28.856Z,99.90
2018-05-14T01:26:56.355Z,99.90
2018-05-14T01:29:23.828Z,99.90
2018-05-14T01:31:51.290Z,99.90
2018-05-14T01:34:18.780Z,99.90
2018-05-14T01:36:46.233Z,99.90
2018-05-14T01:39:13.714Z,99.90
2018-05-14T01:41:41.191Z,99.90
2018-05-14T01:44:09.440Z,99.90
2018-05-14T01:46:36.937Z,99.90
2018-05-14T01:49:04.410Z,99.90
2018-05-14T01:51:31.867Z,99.90
2018-05-14T01:53:59.350Z,99.90
2018-05-14T01:56:26.816Z,99.90
2018-05-14T01:58:54.277Z,99.90
2018-05-14T02:01:21.746Z,99.90
2018-05-14T02:03:49.199Z,99.90
2018-05-14T02:06:16.683Z,99.90
2018-05-14T02:08:44.133Z,99.90
2018-05-14T02:11:11.600Z,99.90
2018-05-14T02:13:39.064Z,99.90
2018-05-14T02:16:06.517Z,99.90
2018-05-14T02:18:33.998Z,99.90
2018-05-14T02:21:01.454Z,99.90
2018-05-14T02:23:28.972Z,99.90
2018-05-14T02:25:56.488Z,99.90
2018-05-14T02:28:23.939Z,99.90
2018-05-14T02:30:52.188Z,99.90
2018-05-14T02:33:19.664Z,99.90
2018-05-14T02:35:47.124Z,99.90
2018-05-14T02:38:14.605Z,99.90
2018-05-14T02:40:42.096Z,99.90
2018-05-14T02:43:10.316Z,99.90
2018-05-14T02:45:37.782Z,99.90
2018-05-14T02:48:05.256Z,99.90
2018-05-14T02:50:32.712Z,99.90
2018-05-14T02:53:00.179Z,99.90
2018-05-14T02:55:28.426Z,99.90
2018-05-14T02:57:55.902Z,99.90
2018-05-14T03:00:23.375Z,99.90
2018-05-14T03:02:50.817Z,99.90
2018-05-14T03:05:18.286Z,99.90
2018-05-14T03:07:45.760Z,99.90
2018-05-14T03:10:13.225Z,99.90
2018-05-14T03:12:41.456Z,99.90
2018-05-14T03:15:09.704Z,99.90
2018-05-14T03:17:37.164Z,99.90
2018-05-14T03:20:04.628Z,99.90
2018-05-14T03:22:32.094Z,99.90
2018-05-14T03:24:59.548Z,99.90
2018-05-14T03:27:27.030Z,99.90
2018-05-14T03:29:54.506Z,99.90
2018-05-14T03:32:21.978Z,99.90
2018-05-14T03:34:49.429Z,99.90
2018-05-14T03:37:16.951Z,99.90
2018-05-14T03:39:44.381Z,99.90
2018-05-14T03:42:11.847Z,99.90
2018-05-14T03:44:39.310Z,99.90
2018-05-14T03:47:06.799Z,99.90
2018-05-14T03:49:34.239Z,99.90
2018-05-14T03:52:01.720Z,99.90
2018-05-14T03:54:29.186Z,99.90
2018-05-14T03:56:56.673Z,99.90
2018-05-14T03:59:50.871Z,99.90
2018-05-14T04:02:30.280Z,99.90
2018-05-14T04:07:58.527Z,99.90
2018-05-14T04:10:25.997Z,99.90
2018-05-14T04:12:53.456Z,99.90
2018-05-14T04:15:21.699Z,99.90
2018-05-14T04:17:49.140Z,99.90
2018-05-14T04:20:16.607Z,99.90
2018-05-14T04:22:44.078Z,99.90
2018-05-14T04:25:11.546Z,99.90
2018-05-14T04:27:38.991Z,99.90
2018-05-14T04:30:07.350Z,99.90
2018-05-14T04:32:34.714Z,99.90
2018-05-14T04:35:02.178Z,99.90
2018-05-14T04:37:29.652Z,99.90
2018-05-14T04:39:57.118Z,99.90
2018-05-14T04:42:24.578Z,99.90
2018-05-14T04:44:52.028Z,99.90
2018-05-14T04:47:19.506Z,99.90
2018-05-14T04:49:46.956Z,99.90
2018-05-14T04:52:14.426Z,99.90
2018-05-14T04:54:41.891Z,99.90
2018-05-14T04:57:09.388Z,99.90
2018-05-14T04:59:36.863Z,99.90
2018-05-14T05:02:04.319Z,99.90
2018-05-14T05:04:31.777Z,99.90
2018-05-14T05:06:59.252Z,99.90
2018-05-14T05:09:26.706Z,99.90
2018-05-14T05:11:54.170Z,99.90
2018-05-14T05:14:21.642Z,99.90
2018-05-14T05:16:49.089Z,99.90
2018-05-14T05:19:16.560Z,99.90
2018-05-14T05:21:44.788Z,99.90
2018-05-14T05:24:12.242Z,99.90
2018-05-14T05:26:39.722Z,99.90
2018-05-14T05:29:07.186Z,99.90
2018-05-14T05:31:34.645Z,99.90
2018-05-14T05:34:02.106Z,99.90
2018-05-14T05:36:30.326Z,99.90
2018-05-14T05:38:57.775Z,99.90
2018-05-14T05:41:25.221Z,99.90
2018-05-14T05:43:53.449Z,99.90
2018-05-14T05:46:20.911Z,99.90
2018-05-14T05:48:48.380Z,99.90
2018-05-14T05:51:15.838Z,99.90
2018-05-14T05:53:43.313Z,99.90
2018-05-14T05:56:10.771Z,99.90
2018-05-14T05:58:38.238Z,99.90
2018-05-14T06:01:05.810Z,99.90
2018-05-14T06:03:33.277Z,99.90
2018-05-14T06:06:01.481Z,99.90
2018-05-14T06:08:28.937Z,99.90
2018-05-14T06:10:56.438Z,99.90
2018-05-14T06:13:23.899Z,99.90
2018-05-14T06:15:51.362Z,99.90
2018-05-14T06:18:18.818Z,99.90
2018-05-14T06:20:46.297Z,99.90
2018-05-14T06:23:13.731Z,99.90
2018-05-14T06:25:41.970Z,99.90
2018-05-14T06:28:09.435Z,99.90
2018-05-14T06:30:36.903Z,99.90
2018-05-14T06:33:04.383Z,99.90
2018-05-14T06:35:31.940Z,99.90
2018-05-14T06:37:59.315Z,99.90
2018-05-14T06:40:26.752Z,99.90
2018-05-14T06:42:55.117Z,99.90
2018-05-14T06:45:22.564Z,99.90
2018-05-14T06:47:50.016Z,99.90
2018-05-14T06:50:17.479Z,99.90
2018-05-14T06:52:44.954Z,99.90
2018-05-14T06:55:12.494Z,99.90
2018-05-14T06:57:39.903Z,99.90
2018-05-14T07:00:07.345Z,99.90
2018-05-14T07:02:34.786Z,99.90
2018-05-14T07:05:03.018Z,99.90
2018-05-14T07:07:30.469Z,99.90
2018-05-14T07:09:57.938Z,99.90
2018-05-14T07:12:25.406Z,99.90
2018-05-14T07:14:52.862Z,99.90
2018-05-14T07:17:21.107Z,99.90
2018-05-14T07:19:48.577Z,99.90
2018-05-14T07:22:16.020Z,99.90
2018-05-14T07:24:43.566Z,99.90
2018-05-14T07:27:10.932Z,99.90
2018-05-14T07:29:39.152Z,99.90
2018-05-14T07:32:06.617Z,99.90
2018-05-14T07:34:34.060Z,99.90
2018-05-14T07:37:02.290Z,99.90
2018-05-14T07:39:29.757Z,99.90
2018-05-14T07:41:57.232Z,99.90
2018-05-14T07:44:24.699Z,99.90
2018-05-14T07:46:52.144Z,99.90
2018-05-14T07:49:19.608Z,99.90
2018-05-14T07:51:47.064Z,99.90
2018-05-14T07:54:15.275Z,99.90
2018-05-14T07:56:42.732Z,99.90
2018-05-14T07:59:10.183Z,99.90
2018-05-14T08:01:38.422Z,99.90
2018-05-14T08:04:05.894Z,99.90
2018-05-14T08:06:33.345Z,99.90
2018-05-14T08:09:00.823Z,99.90
2018-05-14T08:11:28.274Z,99.90
2018-05-14T08:13:55.724Z,99.90
2018-05-14T08:16:23.936Z,99.90
2018-05-14T08:18:51.393Z,99.90
2018-05-14T08:21:18.861Z,99.90
2018-05-14T08:23:47.090Z,99.90
2018-05-14T08:26:14.547Z,99.90
2018-05-14T08:28:42.000Z,99.90
2018-05-14T08:31:09.462Z,99.90
2018-05-14T08:33:36.931Z,99.90
2018-05-14T08:36:04.379Z,99.90
2018-05-14T08:38:32.615Z,99.90
2018-05-14T08:41:00.075Z,99.90
2018-05-14T08:43:27.536Z,99.90
2018-05-14T08:45:55.010Z,99.90
2018-05-14T08:48:22.452Z,99.90
2018-05-14T08:50:50.810Z,99.90
2018-05-14T08:53:18.266Z,99.90
2018-05-14T08:55:45.730Z,99.90
2018-05-14T08:58:13.180Z,99.90
2018-05-14T09:00:40.698Z,99.90
2018-05-14T09:03:08.121Z,99.90
2018-05-14T09:05:35.582Z,99.90
2018-05-14T09:08:03.046Z,99.90
2018-05-14T09:10:30.519Z,99.90
2018-05-14T09:12:57.976Z,99.90
2018-05-14T09:15:26.200Z,99.90
2018-05-14T09:17:53.656Z,99.90
2018-05-14T09:20:21.109Z,99.90
2018-05-14T09:22:48.592Z,99.90
2018-05-14T09:25:16.064Z,99.90
2018-05-14T09:27:43.503Z,99.90
2018-05-14T09:30:11.724Z,99.90
2018-05-14T09:32:39.176Z,99.90
2018-05-14T09:35:06.644Z,99.90
2018-05-14T09:37:34.110Z,99.90
2018-05-14T09:40:01.583Z,99.90
2018-05-14T09:42:29.911Z,99.90
2018-05-14T09:44:57.423Z,99.90
2018-05-14T09:47:25.658Z,99.90
2018-05-14T09:49:53.116Z,99.90
2018-05-14T09:52:20.578Z,99.90
2018-05-14T09:54:48.035Z,99.90
2018-05-14T09:57:16.259Z,99.90
2018-05-14T09:59:43.724Z,99.90
2018-05-14T10:02:11.170Z,99.90
2018-05-14T10:04:38.626Z,99.90
2018-05-14T10:07:06.852Z,99.90
2018-05-14T10:09:34.307Z,99.90
2018-05-14T10:12:01.773Z,99.90
2018-05-14T10:14:29.365Z,99.90
2018-05-14T10:16:57.455Z,99.90
2018-05-14T10:19:24.941Z,99.90
2018-05-14T10:21:53.260Z,99.90
2018-05-14T10:24:21.519Z,99.90
2018-05-14T10:26:48.984Z,99.90
2018-05-14T10:29:16.428Z,99.90
2018-05-14T10:31:43.902Z,99.90
2018-05-14T10:34:11.362Z,99.90
2018-05-14T10:36:38.830Z,99.90
2018-05-14T10:39:06.296Z,99.90
2018-05-14T10:41:33.763Z,99.90
2018-05-14T10:44:01.212Z,99.90
2018-05-14T10:46:29.454Z,99.90
2018-05-14T10:48:56.981Z,99.90
2018-05-14T10:51:25.226Z,99.90
2018-05-14T10:53:52.663Z,99.90
2018-05-14T10:56:20.135Z,99.90
2018-05-14T10:58:47.595Z,99.90
2018-05-14T11:01:15.043Z,99.90
2018-05-14T11:03:42.483Z,99.90
2018-05-14T11:06:09.955Z,99.90
2018-05-14T11:08:37.417Z,99.90
2018-05-14T11:11:04.875Z,99.90
2018-05-14T11:13:32.328Z,99.90
2018-05-14T11:15:59.773Z,99.90
2018-05-14T11:18:27.231Z,99.90
2018-05-14T11:20:54.690Z,99.90
2018-05-14T11:23:22.897Z,99.90
2018-05-14T11:25:50.379Z,99.90
2018-05-14T11:28:17.821Z,99.90
2018-05-14T11:30:45.282Z,99.90
2018-05-14T11:33:13.488Z,95.80
2018-05-14T11:35:40.950Z,95.70
2018-05-14T11:38:08.403Z,92.30
2018-05-14T11:40:36.640Z,81.20
2018-05-14T11:43:05.033Z,81.00
2018-05-14T11:45:32.484Z,73.30
2018-05-14T11:47:59.950Z,62.00
2018-05-14T11:50:27.412Z,61.40
2018-05-14T11:52:54.878Z,58.20
2018-05-14T11:55:23.166Z,53.50
2018-05-14T11:57:51.392Z,52.60
2018-05-14T12:00:19.587Z,51.90
2018-05-14T12:02:47.128Z,51.60
2018-05-14T12:05:14.488Z,51.50
2018-05-14T12:07:41.945Z,46.80
2018-05-14T12:10:10.160Z,44.80
2018-05-14T12:12:37.593Z,44.80
2018-05-14T12:15:05.847Z,45.70
2018-05-14T12:17:33.289Z,45.50
2018-05-14T12:20:00.728Z,45.10
2018-05-14T12:22:28.171Z,41.40
2018-05-14T12:24:56.403Z,42.70
2018-05-14T12:27:23.857Z,42.40
2018-05-14T12:29:51.327Z,39.30
2018-05-14T12:32:18.806Z,38.10
2018-05-14T12:34:46.266Z,38.60
2018-05-14T12:37:13.752Z,39.60
2018-05-14T12:39:41.219Z,37.60
2018-05-14T12:42:08.716Z,38.00
2018-05-14T12:44:36.165Z,37.00
2018-05-14T12:47:03.632Z,36.40
2018-05-14T12:49:31.185Z,35.10
2018-05-14T12:51:58.627Z,36.10
2018-05-14T12:54:26.063Z,34.40
2018-05-14T12:56:53.538Z,34.70
2018-05-14T12:59:21.016Z,33.90
2018-05-14T13:01:48.471Z,35.40
2018-05-14T13:04:15.926Z,34.20
2018-05-14T13:06:43.404Z,33.70
2018-05-14T13:09:10.848Z,34.50
2018-05-14T13:11:38.308Z,32.10
2018-05-14T13:14:05.748Z,32.30
2018-05-14T13:16:33.196Z,31.20
2018-05-14T13:19:00.657Z,31.30
2018-05-14T13:21:28.116Z,33.20
2018-05-14T13:23:55.560Z,31.50
2018-05-14T13:26:23.012Z,33.10
2018-05-14T13:28:51.234Z,31.00
2018-05-14T13:31:18.711Z,30.40
2018-05-14T13:33:46.168Z,29.00
2018-05-14T13:36:13.647Z,28.30
2018-05-14T13:38:41.263Z,29.80
2018-05-14T13:41:08.720Z,27.80
2018-05-14T13:43:36.765Z,28.60
2018-05-14T13:46:04.215Z,29.40
2018-05-14T13:48:31.694Z,29.90
2018-05-14T13:50:59.158Z,28.00
2018-05-14T13:53:27.360Z,28.70
2018-05-14T13:55:54.821Z,28.70
2018-05-14T13:58:22.312Z,29.40
2018-05-14T14:00:49.755Z,27.80
2018-05-14T14:03:17.261Z,28.00
2018-05-14T14:05:44.730Z,28.30
2018-05-14T14:08:12.171Z,27.50
2018-05-14T14:10:39.636Z,26.80
2018-05-14T14:13:07.091Z,26.60
2018-05-14T14:15:35.333Z,27.00
2018-05-14T14:18:02.806Z,27.00
2018-05-14T14:20:30.260Z,26.30
2018-05-14T14:22:57.743Z,27.50
2018-05-14T14:25:25.215Z,26.40
2018-05-14T14:27:52.664Z,26.50
2018-05-14T14:30:20.214Z,27.80
2018-05-14T14:32:47.668Z,27.60
2018-05-14T14:35:15.926Z,26.20
2018-05-14T14:37:43.377Z,26.10
2018-05-14T14:40:10.866Z,26.40
2018-05-14T14:42:38.435Z,27.90
2018-05-14T14:45:05.902Z,26.80
2018-05-14T14:47:33.370Z,26.70
2018-05-14T14:50:00.841Z,26.80
2018-05-14T14:52:28.310Z,26.10
2018-05-14T14:54:55.764Z,26.20
2018-05-14T14:57:23.262Z,25.20
2018-05-14T14:59:52.211Z,25.70
2018-05-14T15:02:19.865Z,25.60
2018-05-14T15:04:48.145Z,26.00
2018-05-14T15:07:16.390Z,25.90
2018-05-14T15:09:43.832Z,25.50
2018-05-14T15:12:11.271Z,25.30
2018-05-14T15:14:38.736Z,25.30
2018-05-14T15:17:06.190Z,25.50
2018-05-14T15:19:33.653Z,24.90
2018-05-14T15:22:01.195Z,25.60
2018-05-14T15:24:28.651Z,25.50
2018-05-14T15:26:56.895Z,26.50
2018-05-14T15:29:24.366Z,26.50
2018-05-14T15:31:51.810Z,25.10
2018-05-14T15:34:19.358Z,25.20
2018-05-14T15:36:46.864Z,25.80
2018-05-14T15:39:14.331Z,25.10
2018-05-14T15:41:41.794Z,24.30
2018-05-14T15:44:09.284Z,25.30
2018-05-14T15:46:36.854Z,25.20
2018-05-14T15:49:04.326Z,25.70
2018-05-14T15:51:31.826Z,24.40
2018-05-14T15:53:59.383Z,25.50
2018-05-14T15:56:26.983Z,24.50
2018-05-14T15:58:54.416Z,25.10
2018-05-14T16:01:21.894Z,25.00
2018-05-14T16:03:49.459Z,24.60
2018-05-14T16:06:16.916Z,24.50
2018-05-14T16:08:44.422Z,25.40
2018-05-14T16:11:12.684Z,24.70
2018-05-14T16:13:40.140Z,24.70
2018-05-14T16:16:07.608Z,25.00
2018-05-14T16:18:35.084Z,25.50
2018-05-14T16:21:02.563Z,25.10
2018-05-14T16:23:30.024Z,25.70
2018-05-14T16:25:57.552Z,24.60
2018-05-14T16:28:25.786Z,24.60
2018-05-14T16:30:53.232Z,24.50
2018-05-14T16:33:20.882Z,25.50
2018-05-14T16:35:49.227Z,25.00
2018-05-14T16:38:17.004Z,24.90
2018-05-14T16:40:44.455Z,25.70
2018-05-14T16:43:11.934Z,25.60
2018-05-14T16:45:41.376Z,26.20
2018-05-14T16:48:08.926Z,26.10
2018-05-14T16:50:36.496Z,26.80
2018-05-14T16:53:03.943Z,26.20
2018-05-14T16:55:31.402Z,26.60
2018-05-14T16:57:58.879Z,25.30
2018-05-14T17:00:26.379Z,26.60
2018-05-14T17:02:53.834Z,26.80
2018-05-14T17:05:21.285Z,26.80
2018-05-14T17:07:48.806Z,27.10
2018-05-14T17:10:16.372Z,26.60
2018-05-14T17:12:43.936Z,27.60
2018-05-14T17:15:11.510Z,28.90
2018-05-14T17:17:39.072Z,30.20
2018-05-14T17:20:06.561Z,30.10
2018-05-14T17:22:34.003Z,32.50
2018-05-14T17:25:01.493Z,33.50
2018-05-14T17:27:28.998Z,33.50
2018-05-14T17:29:57.207Z,33.10
2018-05-14T17:32:24.674Z,33.00
2018-05-14T17:34:52.180Z,32.40
2018-05-14T17:37:19.759Z,31.30
2018-05-14T17:39:47.236Z,32.00
2018-05-14T17:42:14.803Z,32.20
2018-05-14T17:44:42.248Z,31.10
2018-05-14T17:47:09.695Z,32.80
2018-05-14T17:49:37.140Z,34.10
2018-05-14T17:52:05.400Z,36.40
2018-05-14T17:54:32.874Z,36.40
2018-05-14T17:57:00.435Z,36.20
2018-05-14T17:59:27.908Z,37.90
2018-05-14T18:01:55.358Z,38.70
2018-05-14T18:04:22.845Z,39.50
2018-05-14T18:06:50.306Z,40.40
2018-05-14T18:09:17.768Z,42.30
2018-05-14T18:11:45.251Z,43.20
2018-05-14T18:14:12.714Z,43.30
2018-05-14T18:16:40.178Z,44.00
2018-05-14T18:19:07.635Z,43.80
2018-05-14T18:21:38.007Z,44.30
2018-05-14T18:24:07.011Z,45.40
2018-05-14T18:26:40.247Z,45.40
2018-05-14T18:29:08.487Z,45.60
2018-05-14T18:31:50.815Z,45.60
2018-05-14T18:34:18.355Z,46.30
2018-05-14T18:36:45.846Z,47.20
2018-05-14T18:39:13.377Z,47.30
2018-05-14T18:41:40.803Z,48.40
2018-05-14T18:44:14.210Z,48.70
2018-05-14T18:46:41.695Z,48.90
2018-05-14T18:49:09.147Z,48.20
2018-05-14T18:51:36.617Z,48.30
2018-05-14T18:54:04.064Z,49.00
2018-05-14T18:56:31.540Z,49.40
2018-05-14T18:58:58.991Z,49.80
2018-05-14T19:01:26.458Z,49.80
2018-05-14T19:03:53.966Z,50.80
2018-05-14T19:06:21.529Z,50.90
2018-05-14T19:08:49.007Z,50.60
2018-05-14T19:11:22.131Z,50.80
2018-05-14T19:13:49.682Z,50.40
2018-05-14T19:16:22.807Z,51.10
2018-05-14T19:18:50.298Z,51.70
2018-05-14T19:21:18.524Z,53.40
2018-05-14T19:23:51.699Z,53.30
2018-05-14T19:26:19.064Z,51.70
2018-05-14T19:28:52.337Z,50.70
2018-05-14T19:31:19.790Z,51.20
2018-05-14T19:33:53.014Z,50.00
2018-05-14T19:36:20.574Z,49.40
2018-05-14T19:38:48.116Z,50.00
2018-05-14T19:41:15.599Z,49.10
2018-05-14T19:43:43.067Z,50.20
2018-05-14T19:46:10.538Z,49.50
2018-05-14T19:48:38.012Z,49.80
2018-05-14T19:51:05.456Z,47.80
2018-05-14T19:53:32.931Z,49.40
2018-05-14T19:56:00.390Z,48.60
2018-05-14T19:58:27.851Z,49.70
2018-05-14T20:00:55.322Z,49.80
2018-05-14T20:03:22.819Z,50.70
2018-05-14T20:05:50.300Z,50.10
2018-05-14T20:08:17.776Z,48.80
2018-05-14T20:10:45.239Z,48.70
2018-05-14T20:13:12.709Z,50.00
2018-05-14T20:15:42.117Z,48.50
2018-05-14T20:18:09.577Z,49.90
2018-05-14T20:20:37.062Z,49.20
2018-05-14T20:23:04.528Z,50.10
2018-05-14T20:25:31.991Z,49.50
2018-05-14T20:27:59.543Z,50.00
2018-05-14T20:30:26.946Z,50.00
2018-05-14T20:32:54.420Z,50.60
2018-05-14T20:35:21.876Z,50.60
2018-05-14T20:37:49.329Z,51.80
2018-05-14T20:40:16.882Z,51.60
2018-05-14T20:42:45.111Z,51.00
2018-05-14T20:45:12.581Z,51.00
2018-05-14T20:47:40.029Z,51.60
2018-05-14T20:50:07.480Z,51.90
2018-05-14T20:52:34.942Z,51.00
2018-05-14T20:55:02.404Z,51.10
2018-05-14T20:57:30.628Z,53.30
2018-05-14T20:59:58.088Z,53.30
2018-05-14T21:02:25.555Z,51.90
2018-05-14T21:04:53.012Z,52.30
2018-05-14T21:07:20.582Z,52.90
2018-05-14T21:09:48.055Z,52.20
2018-05-14T21:12:15.508Z,52.90
2018-05-14T21:14:43.789Z,53.00
2018-05-14T21:17:11.191Z,53.00
2018-05-14T21:19:38.647Z,52.20
2018-05-14T21:22:06.135Z,51.20
2018-05-14T21:24:33.601Z,52.00
2018-05-14T21:27:01.079Z,51.70
2018-05-14T21:30:35.296Z,51.70
2018-05-14T21:33:03.530Z,52.10
2018-05-14T21:35:30.968Z,52.10
2018-05-14T21:37:58.449Z,52.40
2018-05-14T21:40:25.907Z,51.30
2018-05-14T21:42:53.367Z,51.20
2018-05-14T21:45:20.850Z,50.30
2018-05-14T21:47:48.310Z,51.40
2018-05-14T21:50:15.857Z,52.70
2018-05-14T21:52:43.282Z,53.20
2018-05-14T21:55:10.759Z,53.20
2018-05-14T21:57:38.227Z,52.90
2018-05-14T22:00:05.688Z,52.70
2018-05-14T22:02:33.178Z,52.50
2018-05-14T22:05:00.635Z,51.00
2018-05-14T22:07:28.091Z,53.60
2018-05-14T22:09:55.575Z,54.90
2018-05-14T22:12:23.030Z,55.20
2018-05-14T22:14:50.485Z,55.20
2018-05-14T22:17:17.980Z,55.10
2018-05-14T22:19:45.445Z,55.80
2018-05-14T22:22:12.913Z,52.80
2018-05-14T22:24:40.379Z,55.20
2018-05-14T22:27:08.127Z,56.20
2018-05-14T22:29:36.439Z,56.00
2018-05-14T22:32:03.951Z,56.00
2018-05-14T22:34:31.398Z,57.20
2018-05-14T22:36:58.876Z,56.50
2018-05-14T22:39:26.493Z,58.30
2018-05-14T22:41:53.958Z,57.50
2018-05-14T22:44:21.412Z,59.20
2018-05-14T22:46:49.644Z,62.40
2018-05-14T22:49:17.110Z,62.30
2018-05-14T22:51:44.564Z,60.10
2018-05-14T22:54:12.058Z,61.60
2018-05-14T22:56:39.527Z,60.00
2018-05-14T22:59:06.988Z,61.30
2018-05-14T23:01:34.475Z,61.50
2018-05-14T23:04:01.943Z,59.50
2018-05-14T23:06:29.411Z,60.30
2018-05-14T23:08:56.880Z,62.50
2018-05-14T23:11:24.335Z,62.60
2018-05-14T23:13:51.802Z,62.10
2018-05-14T23:16:19.285Z,62.20
2018-05-14T23:18:46.763Z,62.70
2018-05-14T23:21:14.230Z,63.40
2018-05-14T23:23:41.704Z,62.70
2018-05-14T23:26:09.178Z,65.00
2018-05-14T23:28:36.638Z,66.70
2018-05-14T23:31:04.119Z,67.10
2018-05-14T23:33:31.696Z,68.20
2018-05-14T23:35:59.162Z,69.70
2018-05-14T23:38:26.649Z,68.60
2018-05-14T23:40:54.118Z,70.60
2018-05-14T23:43:21.586Z,71.90
2018-05-14T23:45:49.056Z,74.80
2018-05-14T23:48:16.512Z,74.10
2018-05-14T23:50:43.971Z,78.70
2018-05-14T23:53:11.445Z,80.20
2018-05-14T23:55:38.905Z,86.10
2018-05-14T23:58:07.144Z,94.10
